sensor_id;sensor_type;location;lat;lon;timestamp;P1;durP1;ratioP1;P2;durP2;ratioP2
61638;SDS011;47544;52.484;4.658;2023-07-16T00:00:02;11.82;;;3.70;;
61638;SDS011;47544;52.484;4.658;2023-07-16T00:00:15;8.40;;;3.47;;
61638;SDS011;47544;52.484;4.658;2023-07-16T00:00:29;7.50;;;2.97;;
61638;SDS011;47544;52.484;4.658;2023-07-16T00:00:40;11.00;;;3.40;;
61638;SDS011;47544;52.484;4.658;2023-07-16T00:00:51;11.30;;;3.78;;
61638;SDS011;47544;52.484;4.658;2023-07-16T00:01:03;9.50;;;3.42;;
61638;SDS011;47544;52.484;4.658;2023-07-16T00:01:14;8.38;;;3.30;;
61638;SDS011;47544;52.484;4.658;2023-07-16T00:01:25;10.27;;;3.75;;
61638;SDS011;47544;52.484;4.658;2023-07-16T00:01:37;11.57;;;4.35;;
61638;SDS011;47544;52.484;4.658;2023-07-16T00:01:49;11.43;;;4.20;;
61638;SDS011;47544;52.484;4.658;2023-07-16T00:02:02;8.20;;;4.10;;
61638;SDS011;47544;52.484;4.658;2023-07-16T00:02:13;8.63;;;3.75;;
61638;SDS011;47544;52.484;4.658;2023-07-16T00:02:24;8.40;;;3.70;;
61638;SDS011;47544;52.484;4.658;2023-07-16T00:02:35;8.40;;;3.65;;
61638;SDS011;47544;52.484;4.658;2023-07-16T00:02:46;8.25;;;3.50;;
61638;SDS011;47544;52.484;4.658;2023-07-16T00:02:59;7.88;;;3.25;;
61638;SDS011;47544;52.484;4.658;2023-07-16T00:03:10;8.25;;;3.85;;
61638;SDS011;47544;52.484;4.658;2023-07-16T00:03:25;7.82;;;3.50;;
61638;SDS011;47544;52.484;4.658;2023-07-16T00:03:36;9.00;;;3.08;;
61638;SDS011;47544;52.484;4.658;2023-07-16T00:03:47;10.23;;;3.03;;
61638;SDS011;47544;52.484;4.658;2023-07-16T00:03:58;9.75;;;3.35;;
61638;SDS011;47544;52.484;4.658;2023-07-16T00:04:09;8.43;;;3.50;;
61638;SDS011;47544;52.484;4.658;2023-07-16T00:04:20;7.38;;;3.33;;
61638;SDS011;47544;52.484;4.658;2023-07-16T00:04:33;9.52;;;3.72;;
61638;SDS011;47544;52.484;4.658;2023-07-16T00:04:44;11.90;;;3.70;;
61638;SDS011;47544;52.484;4.658;2023-07-16T00:04:57;11.90;;;3.45;;
61638;SDS011;47544;52.484;4.658;2023-07-16T00:05:08;11.20;;;3.40;;
61638;SDS011;47544;52.484;4.658;2023-07-16T00:05:25;10.25;;;3.28;;
61638;SDS011;47544;52.484;4.658;2023-07-16T00:05:42;13.13;;;3.95;;
61638;SDS011;47544;52.484;4.658;2023-07-16T00:05:53;14.85;;;4.32;;
61638;SDS011;47544;52.484;4.658;2023-07-16T00:06:10;13.27;;;3.83;;
61638;SDS011;47544;52.484;4.658;2023-07-16T00:06:21;12.18;;;4.15;;
61638;SDS011;47544;52.484;4.658;2023-07-16T00:06:32;11.90;;;4.30;;
61638;SDS011;47544;52.484;4.658;2023-07-16T00:06:43;9.27;;;3.75;;
61638;SDS011;47544;52.484;4.658;2023-07-16T00:06:55;9.50;;;3.53;;
61638;SDS011;47544;52.484;4.658;2023-07-16T00:07:09;8.77;;;3.47;;
61638;SDS011;47544;52.484;4.658;2023-07-16T00:07:26;9.27;;;3.95;;
61638;SDS011;47544;52.484;4.658;2023-07-16T00:07:38;9.35;;;4.05;;
61638;SDS011;47544;52.484;4.658;2023-07-16T00:07:51;11.95;;;3.97;;
61638;SDS011;47544;52.484;4.658;2023-07-16T00:08:03;11.57;;;3.83;;
61638;SDS011;47544;52.484;4.658;2023-07-16T00:08:14;12.82;;;3.78;;
61638;SDS011;47544;52.484;4.658;2023-07-16T00:08:25;11.25;;;3.53;;
61638;SDS011;47544;52.484;4.658;2023-07-16T00:08:37;10.02;;;3.03;;
61638;SDS011;47544;52.484;4.658;2023-07-16T00:08:49;9.25;;;3.10;;
61638;SDS011;47544;52.484;4.658;2023-07-16T00:09:00;10.85;;;3.55;;
61638;SDS011;47544;52.484;4.658;2023-07-16T00:09:12;10.98;;;3.88;;
61638;SDS011;47544;52.484;4.658;2023-07-16T00:09:23;9.70;;;3.88;;
61638;SDS011;47544;52.484;4.658;2023-07-16T00:09:34;10.77;;;4.00;;
61638;SDS011;47544;52.484;4.658;2023-07-16T00:09:45;10.00;;;3.58;;
61638;SDS011;47544;52.484;4.658;2023-07-16T00:09:57;10.32;;;3.50;;
61638;SDS011;47544;52.484;4.658;2023-07-16T00:10:08;9.80;;;3.55;;
61638;SDS011;47544;52.484;4.658;2023-07-16T00:10:20;9.75;;;3.72;;
61638;SDS011;47544;52.484;4.658;2023-07-16T00:10:34;7.82;;;3.78;;
61638;SDS011;47544;52.484;4.658;2023-07-16T00:10:48;9.05;;;4.00;;
61638;SDS011;47544;52.484;4.658;2023-07-16T00:10:59;9.57;;;3.80;;
61638;SDS011;47544;52.484;4.658;2023-07-16T00:11:10;10.52;;;3.40;;
61638;SDS011;47544;52.484;4.658;2023-07-16T00:11:25;8.57;;;3.17;;
61638;SDS011;47544;52.484;4.658;2023-07-16T00:11:36;7.70;;;3.08;;
61638;SDS011;47544;52.484;4.658;2023-07-16T00:11:47;8.32;;;3.13;;
61638;SDS011;47544;52.484;4.658;2023-07-16T00:11:58;10.55;;;3.60;;
61638;SDS011;47544;52.484;4.658;2023-07-16T00:12:09;12.00;;;4.03;;
61638;SDS011;47544;52.484;4.658;2023-07-16T00:12:21;10.18;;;4.07;;
61638;SDS011;47544;52.484;4.658;2023-07-16T00:12:36;10.45;;;3.83;;
61638;SDS011;47544;52.484;4.658;2023-07-16T00:12:47;10.32;;;3.40;;
61638;SDS011;47544;52.484;4.658;2023-07-16T00:12:59;10.80;;;3.03;;
61638;SDS011;47544;52.484;4.658;2023-07-16T00:13:10;8.60;;;2.92;;
61638;SDS011;47544;52.484;4.658;2023-07-16T00:13:25;9.48;;;3.05;;
61638;SDS011;47544;52.484;4.658;2023-07-16T00:13:36;11.45;;;3.97;;
61638;SDS011;47544;52.484;4.658;2023-07-16T00:13:50;13.07;;;4.65;;
61638;SDS011;47544;52.484;4.658;2023-07-16T00:14:02;14.50;;;4.63;;
61638;SDS011;47544;52.484;4.658;2023-07-16T00:14:13;12.73;;;4.43;;
61638;SDS011;47544;52.484;4.658;2023-07-16T00:14:25;12.50;;;3.80;;
61638;SDS011;47544;52.484;4.658;2023-07-16T00:14:36;11.52;;;3.35;;
61638;SDS011;47544;52.484;4.658;2023-07-16T00:14:48;12.95;;;3.47;;
61638;SDS011;47544;52.484;4.658;2023-07-16T00:15:06;12.00;;;4.00;;
61638;SDS011;47544;52.484;4.658;2023-07-16T00:15:18;11.68;;;4.40;;
61638;SDS011;47544;52.484;4.658;2023-07-16T00:15:29;13.63;;;4.40;;
61638;SDS011;47544;52.484;4.658;2023-07-16T00:15:42;15.75;;;4.97;;
61638;SDS011;47544;52.484;4.658;2023-07-16T00:15:53;17.00;;;5.22;;
61638;SDS011;47544;52.484;4.658;2023-07-16T00:16:04;13.23;;;4.57;;
61638;SDS011;47544;52.484;4.658;2023-07-16T00:16:16;11.07;;;3.92;;
61638;SDS011;47544;52.484;4.658;2023-07-16T00:16:28;12.48;;;3.75;;
61638;SDS011;47544;52.484;4.658;2023-07-16T00:16:40;12.48;;;3.63;;
61638;SDS011;47544;52.484;4.658;2023-07-16T00:16:51;11.02;;;3.63;;
61638;SDS011;47544;52.484;4.658;2023-07-16T00:17:04;8.75;;;3.47;;
61638;SDS011;47544;52.484;4.658;2023-07-16T00:17:15;7.30;;;3.28;;
61638;SDS011;47544;52.484;4.658;2023-07-16T00:17:27;9.13;;;4.10;;
61638;SDS011;47544;52.484;4.658;2023-07-16T00:17:39;9.18;;;4.00;;
61638;SDS011;47544;52.484;4.658;2023-07-16T00:17:50;10.45;;;4.00;;
61638;SDS011;47544;52.484;4.658;2023-07-16T00:18:02;10.25;;;3.47;;
61638;SDS011;47544;52.484;4.658;2023-07-16T00:18:19;9.50;;;3.38;;
61638;SDS011;47544;52.484;4.658;2023-07-16T00:18:30;12.00;;;3.85;;
61638;SDS011;47544;52.484;4.658;2023-07-16T00:18:44;12.25;;;3.92;;
61638;SDS011;47544;52.484;4.658;2023-07-16T00:18:55;10.57;;;3.88;;
61638;SDS011;47544;52.484;4.658;2023-07-16T00:19:09;8.88;;;3.58;;
61638;SDS011;47544;52.484;4.658;2023-07-16T00:19:23;10.07;;;3.70;;
61638;SDS011;47544;52.484;4.658;2023-07-16T00:19:34;12.85;;;4.53;;
61638;SDS011;47544;52.484;4.658;2023-07-16T00:19:45;13.15;;;4.70;;
61638;SDS011;47544;52.484;4.658;2023-07-16T00:19:58;13.02;;;4.25;;
61638;SDS011;47544;52.484;4.658;2023-07-16T00:20:10;11.23;;;3.47;;
61638;SDS011;47544;52.484;4.658;2023-07-16T00:20:21;8.40;;;3.28;;
61638;SDS011;47544;52.484;4.658;2023-07-16T00:20:34;9.20;;;3.25;;
61638;SDS011;47544;52.484;4.658;2023-07-16T00:20:45;10.80;;;3.45;;
61638;SDS011;47544;52.484;4.658;2023-07-16T00:20:59;10.38;;;3.80;;
61638;SDS011;47544;52.484;4.658;2023-07-16T00:21:11;8.10;;;3.72;;
61638;SDS011;47544;52.484;4.658;2023-07-16T00:21:22;9.75;;;3.75;;
61638;SDS011;47544;52.484;4.658;2023-07-16T00:21:34;9.35;;;3.47;;
61638;SDS011;47544;52.484;4.658;2023-07-16T00:21:47;8.23;;;3.60;;
61638;SDS011;47544;52.484;4.658;2023-07-16T00:21:58;8.90;;;3.67;;
61638;SDS011;47544;52.484;4.658;2023-07-16T00:22:10;11.50;;;4.15;;
61638;SDS011;47544;52.484;4.658;2023-07-16T00:22:22;11.25;;;4.05;;
61638;SDS011;47544;52.484;4.658;2023-07-16T00:22:34;11.52;;;4.20;;
61638;SDS011;47544;52.484;4.658;2023-07-16T00:22:47;10.68;;;3.50;;
61638;SDS011;47544;52.484;4.658;2023-07-16T00:23:00;10.32;;;3.60;;
61638;SDS011;47544;52.484;4.658;2023-07-16T00:23:12;8.82;;;3.97;;
61638;SDS011;47544;52.484;4.658;2023-07-16T00:23:23;8.50;;;4.05;;
61638;SDS011;47544;52.484;4.658;2023-07-16T00:23:36;7.43;;;3.50;;
61638;SDS011;47544;52.484;4.658;2023-07-16T00:23:50;7.97;;;3.38;;
61638;SDS011;47544;52.484;4.658;2023-07-16T00:24:01;7.95;;;3.28;;
61638;SDS011;47544;52.484;4.658;2023-07-16T00:24:12;7.78;;;3.08;;
61638;SDS011;47544;52.484;4.658;2023-07-16T00:24:24;10.07;;;3.47;;
61638;SDS011;47544;52.484;4.658;2023-07-16T00:24:35;10.68;;;3.80;;
61638;SDS011;47544;52.484;4.658;2023-07-16T00:24:46;12.55;;;4.22;;
61638;SDS011;47544;52.484;4.658;2023-07-16T00:25:00;10.25;;;3.63;;
61638;SDS011;47544;52.484;4.658;2023-07-16T00:25:11;11.27;;;3.22;;
61638;SDS011;47544;52.484;4.658;2023-07-16T00:25:25;10.50;;;3.35;;
61638;SDS011;47544;52.484;4.658;2023-07-16T00:25:39;11.10;;;3.57;;
61638;SDS011;47544;52.484;4.658;2023-07-16T00:25:50;11.00;;;3.90;;
61638;SDS011;47544;52.484;4.658;2023-07-16T00:26:02;10.95;;;3.83;;
61638;SDS011;47544;52.484;4.658;2023-07-16T00:26:13;9.23;;;3.40;;
61638;SDS011;47544;52.484;4.658;2023-07-16T00:26:24;9.52;;;3.45;;
61638;SDS011;47544;52.484;4.658;2023-07-16T00:26:40;13.07;;;4.03;;
61638;SDS011;47544;52.484;4.658;2023-07-16T00:26:54;15.40;;;4.53;;
61638;SDS011;47544;52.484;4.658;2023-07-16T00:27:05;14.35;;;4.90;;
61638;SDS011;47544;52.484;4.658;2023-07-16T00:27:16;12.63;;;4.30;;
61638;SDS011;47544;52.484;4.658;2023-07-16T00:27:30;10.27;;;3.78;;
61638;SDS011;47544;52.484;4.658;2023-07-16T00:27:42;9.88;;;3.65;;
61638;SDS011;47544;52.484;4.658;2023-07-16T00:28:04;12.68;;;4.40;;
61638;SDS011;47544;52.484;4.658;2023-07-16T00:28:16;13.65;;;4.78;;
61638;SDS011;47544;52.484;4.658;2023-07-16T00:28:27;12.65;;;4.40;;
61638;SDS011;47544;52.484;4.658;2023-07-16T00:28:38;11.93;;;4.22;;
61638;SDS011;47544;52.484;4.658;2023-07-16T00:28:56;12.50;;;4.53;;
61638;SDS011;47544;52.484;4.658;2023-07-16T00:29:08;12.30;;;4.75;;
61638;SDS011;47544;52.484;4.658;2023-07-16T00:29:20;11.77;;;4.50;;
61638;SDS011;47544;52.484;4.658;2023-07-16T00:29:39;10.40;;;4.35;;
61638;SDS011;47544;52.484;4.658;2023-07-16T00:29:50;12.48;;;4.80;;
61638;SDS011;47544;52.484;4.658;2023-07-16T00:30:02;14.10;;;5.35;;
61638;SDS011;47544;52.484;4.658;2023-07-16T00:30:17;14.82;;;4.95;;
61638;SDS011;47544;52.484;4.658;2023-07-16T00:30:29;12.80;;;4.35;;
61638;SDS011;47544;52.484;4.658;2023-07-16T00:30:42;10.57;;;3.65;;
61638;SDS011;47544;52.484;4.658;2023-07-16T00:30:53;10.15;;;3.25;;
61638;SDS011;47544;52.484;4.658;2023-07-16T00:31:04;10.35;;;3.03;;
61638;SDS011;47544;52.484;4.658;2023-07-16T00:31:15;8.02;;;3.30;;
61638;SDS011;47544;52.484;4.658;2023-07-16T00:31:28;8.85;;;4.20;;
61638;SDS011;47544;52.484;4.658;2023-07-16T00:31:39;8.25;;;3.95;;
61638;SDS011;47544;52.484;4.658;2023-07-16T00:31:50;8.68;;;3.95;;
61638;SDS011;47544;52.484;4.658;2023-07-16T00:32:01;7.22;;;3.10;;
61638;SDS011;47544;52.484;4.658;2023-07-16T00:32:14;8.82;;;3.67;;
61638;SDS011;47544;52.484;4.658;2023-07-16T00:32:25;9.30;;;3.83;;
61638;SDS011;47544;52.484;4.658;2023-07-16T00:32:36;10.98;;;3.97;;
61638;SDS011;47544;52.484;4.658;2023-07-16T00:32:47;11.43;;;3.92;;
61638;SDS011;47544;52.484;4.658;2023-07-16T00:32:59;12.25;;;4.22;;
61638;SDS011;47544;52.484;4.658;2023-07-16T00:33:10;11.13;;;3.92;;
61638;SDS011;47544;52.484;4.658;2023-07-16T00:33:24;10.05;;;3.75;;
61638;SDS011;47544;52.484;4.658;2023-07-16T00:33:36;10.57;;;4.03;;
61638;SDS011;47544;52.484;4.658;2023-07-16T00:33:51;12.32;;;4.25;;
61638;SDS011;47544;52.484;4.658;2023-07-16T00:34:02;14.10;;;4.40;;
61638;SDS011;47544;52.484;4.658;2023-07-16T00:34:13;12.00;;;4.00;;
61638;SDS011;47544;52.484;4.658;2023-07-16T00:34:25;8.35;;;3.22;;
61638;SDS011;47544;52.484;4.658;2023-07-16T00:34:36;7.53;;;3.30;;
61638;SDS011;47544;52.484;4.658;2023-07-16T00:34:47;7.57;;;3.40;;
61638;SDS011;47544;52.484;4.658;2023-07-16T00:35:00;7.35;;;3.28;;
61638;SDS011;47544;52.484;4.658;2023-07-16T00:35:13;8.55;;;3.47;;
61638;SDS011;47544;52.484;4.658;2023-07-16T00:35:24;9.65;;;3.65;;
61638;SDS011;47544;52.484;4.658;2023-07-16T00:35:35;10.35;;;3.78;;
61638;SDS011;47544;52.484;4.658;2023-07-16T00:35:47;11.57;;;4.22;;
61638;SDS011;47544;52.484;4.658;2023-07-16T00:36:01;11.57;;;4.28;;
61638;SDS011;47544;52.484;4.658;2023-07-16T00:36:15;10.80;;;3.78;;
61638;SDS011;47544;52.484;4.658;2023-07-16T00:36:26;8.27;;;3.53;;
61638;SDS011;47544;52.484;4.658;2023-07-16T00:36:38;7.75;;;3.17;;
61638;SDS011;47544;52.484;4.658;2023-07-16T00:36:51;9.70;;;3.33;;
61638;SDS011;47544;52.484;4.658;2023-07-16T00:37:02;11.82;;;4.18;;
61638;SDS011;47544;52.484;4.658;2023-07-16T00:37:14;11.80;;;4.35;;
61638;SDS011;47544;52.484;4.658;2023-07-16T00:37:26;10.38;;;4.38;;
61638;SDS011;47544;52.484;4.658;2023-07-16T00:37:38;8.73;;;3.65;;
61638;SDS011;47544;52.484;4.658;2023-07-16T00:37:49;8.30;;;3.53;;
61638;SDS011;47544;52.484;4.658;2023-07-16T00:38:00;10.20;;;3.95;;
61638;SDS011;47544;52.484;4.658;2023-07-16T00:38:11;10.50;;;3.95;;
61638;SDS011;47544;52.484;4.658;2023-07-16T00:38:30;9.88;;;3.42;;
61638;SDS011;47544;52.484;4.658;2023-07-16T00:38:42;9.85;;;3.30;;
61638;SDS011;47544;52.484;4.658;2023-07-16T00:39:00;11.32;;;3.42;;
61638;SDS011;47544;52.484;4.658;2023-07-16T00:39:11;12.52;;;3.85;;
61638;SDS011;47544;52.484;4.658;2023-07-16T00:39:22;12.93;;;4.27;;
61638;SDS011;47544;52.484;4.658;2023-07-16T00:39:36;11.75;;;4.20;;
61638;SDS011;47544;52.484;4.658;2023-07-16T00:39:47;12.18;;;4.00;;
61638;SDS011;47544;52.484;4.658;2023-07-16T00:39:59;10.35;;;3.42;;
61638;SDS011;47544;52.484;4.658;2023-07-16T00:40:11;9.63;;;3.73;;
61638;SDS011;47544;52.484;4.658;2023-07-16T00:40:22;8.70;;;3.67;;
61638;SDS011;47544;52.484;4.658;2023-07-16T00:40:36;11.82;;;3.28;;
61638;SDS011;47544;52.484;4.658;2023-07-16T00:40:48;12.07;;;3.70;;
61638;SDS011;47544;52.484;4.658;2023-07-16T00:41:00;9.35;;;3.92;;
61638;SDS011;47544;52.484;4.658;2023-07-16T00:41:12;10.38;;;4.07;;
61638;SDS011;47544;52.484;4.658;2023-07-16T00:41:23;12.25;;;4.05;;
61638;SDS011;47544;52.484;4.658;2023-07-16T00:41:37;12.52;;;3.92;;
61638;SDS011;47544;52.484;4.658;2023-07-16T00:41:48;8.85;;;3.65;;
61638;SDS011;47544;52.484;4.658;2023-07-16T00:41:59;9.50;;;4.15;;
61638;SDS011;47544;52.484;4.658;2023-07-16T00:42:11;10.20;;;4.30;;
61638;SDS011;47544;52.484;4.658;2023-07-16T00:42:22;9.70;;;4.22;;
61638;SDS011;47544;52.484;4.658;2023-07-16T00:42:37;9.38;;;3.80;;
61638;SDS011;47544;52.484;4.658;2023-07-16T00:42:48;10.27;;;3.67;;
61638;SDS011;47544;52.484;4.658;2023-07-16T00:42:59;9.98;;;3.47;;
61638;SDS011;47544;52.484;4.658;2023-07-16T00:43:10;10.38;;;3.75;;
61638;SDS011;47544;52.484;4.658;2023-07-16T00:43:21;9.25;;;3.55;;
61638;SDS011;47544;52.484;4.658;2023-07-16T00:43:33;11.15;;;3.97;;
61638;SDS011;47544;52.484;4.658;2023-07-16T00:43:45;11.07;;;4.15;;
61638;SDS011;47544;52.484;4.658;2023-07-16T00:43:57;9.45;;;4.05;;
61638;SDS011;47544;52.484;4.658;2023-07-16T00:44:08;8.98;;;3.75;;
61638;SDS011;47544;52.484;4.658;2023-07-16T00:44:20;8.82;;;3.55;;
61638;SDS011;47544;52.484;4.658;2023-07-16T00:44:32;8.35;;;4.18;;
61638;SDS011;47544;52.484;4.658;2023-07-16T00:44:43;9.02;;;4.53;;
61638;SDS011;47544;52.484;4.658;2023-07-16T00:44:54;11.95;;;4.35;;
61638;SDS011;47544;52.484;4.658;2023-07-16T00:45:09;13.23;;;3.95;;
61638;SDS011;47544;52.484;4.658;2023-07-16T00:45:23;11.05;;;3.83;;
61638;SDS011;47544;52.484;4.658;2023-07-16T00:45:34;10.13;;;3.83;;
61638;SDS011;47544;52.484;4.658;2023-07-16T00:45:46;9.90;;;3.83;;
61638;SDS011;47544;52.484;4.658;2023-07-16T00:46:05;8.07;;;3.40;;
61638;SDS011;47544;52.484;4.658;2023-07-16T00:46:18;10.27;;;3.72;;
61638;SDS011;47544;52.484;4.658;2023-07-16T00:46:29;10.02;;;4.15;;
61638;SDS011;47544;52.484;4.658;2023-07-16T00:46:44;9.57;;;4.30;;
61638;SDS011;47544;52.484;4.658;2023-07-16T00:46:55;9.30;;;4.05;;
61638;SDS011;47544;52.484;4.658;2023-07-16T00:47:10;10.18;;;4.03;;
61638;SDS011;47544;52.484;4.658;2023-07-16T00:47:23;11.38;;;4.07;;
61638;SDS011;47544;52.484;4.658;2023-07-16T00:47:35;11.80;;;4.60;;
61638;SDS011;47544;52.484;4.658;2023-07-16T00:47:46;12.35;;;4.95;;
61638;SDS011;47544;52.484;4.658;2023-07-16T00:47:57;10.75;;;5.07;;
61638;SDS011;47544;52.484;4.658;2023-07-16T00:48:10;9.73;;;4.70;;
61638;SDS011;47544;52.484;4.658;2023-07-16T00:48:22;10.55;;;4.80;;
61638;SDS011;47544;52.484;4.658;2023-07-16T00:48:33;10.80;;;5.13;;
61638;SDS011;47544;52.484;4.658;2023-07-16T00:48:45;10.38;;;4.95;;
61638;SDS011;47544;52.484;4.658;2023-07-16T00:48:59;9.32;;;3.97;;
61638;SDS011;47544;52.484;4.658;2023-07-16T00:49:10;9.70;;;4.22;;
61638;SDS011;47544;52.484;4.658;2023-07-16T00:49:21;8.65;;;4.35;;
61638;SDS011;47544;52.484;4.658;2023-07-16T00:49:33;10.13;;;4.82;;
61638;SDS011;47544;52.484;4.658;2023-07-16T00:49:44;9.65;;;4.32;;
61638;SDS011;47544;52.484;4.658;2023-07-16T00:49:56;10.18;;;4.53;;
61638;SDS011;47544;52.484;4.658;2023-07-16T00:50:07;9.65;;;4.43;;
61638;SDS011;47544;52.484;4.658;2023-07-16T00:50:19;8.40;;;4.45;;
61638;SDS011;47544;52.484;4.658;2023-07-16T00:50:30;9.18;;;4.18;;
61638;SDS011;47544;52.484;4.658;2023-07-16T00:50:45;11.40;;;3.95;;
61638;SDS011;47544;52.484;4.658;2023-07-16T00:50:56;11.88;;;3.92;;
61638;SDS011;47544;52.484;4.658;2023-07-16T00:51:07;10.85;;;4.07;;
61638;SDS011;47544;52.484;4.658;2023-07-16T00:51:18;10.10;;;4.20;;
61638;SDS011;47544;52.484;4.658;2023-07-16T00:51:30;11.25;;;4.50;;
61638;SDS011;47544;52.484;4.658;2023-07-16T00:51:43;14.48;;;4.90;;
61638;SDS011;47544;52.484;4.658;2023-07-16T00:51:55;13.45;;;4.03;;
61638;SDS011;47544;52.484;4.658;2023-07-16T00:52:08;10.23;;;3.20;;
61638;SDS011;47544;52.484;4.658;2023-07-16T00:52:22;10.50;;;3.55;;
61638;SDS011;47544;52.484;4.658;2023-07-16T00:52:35;11.75;;;3.97;;
61638;SDS011;47544;52.484;4.658;2023-07-16T00:52:46;13.73;;;4.40;;
61638;SDS011;47544;52.484;4.658;2023-07-16T00:52:57;14.35;;;4.68;;
61638;SDS011;47544;52.484;4.658;2023-07-16T00:53:09;12.45;;;4.57;;
61638;SDS011;47544;52.484;4.658;2023-07-16T00:53:21;11.68;;;4.85;;
61638;SDS011;47544;52.484;4.658;2023-07-16T00:53:32;12.35;;;4.60;;
61638;SDS011;47544;52.484;4.658;2023-07-16T00:53:43;11.63;;;4.32;;
61638;SDS011;47544;52.484;4.658;2023-07-16T00:53:57;9.88;;;3.65;;
61638;SDS011;47544;52.484;4.658;2023-07-16T00:54:08;9.32;;;3.72;;
61638;SDS011;47544;52.484;4.658;2023-07-16T00:54:19;10.38;;;4.30;;
61638;SDS011;47544;52.484;4.658;2023-07-16T00:54:30;10.30;;;4.43;;
61638;SDS011;47544;52.484;4.658;2023-07-16T00:54:42;11.68;;;4.40;;
61638;SDS011;47544;52.484;4.658;2023-07-16T00:54:53;11.82;;;4.25;;
61638;SDS011;47544;52.484;4.658;2023-07-16T00:55:04;13.20;;;5.00;;
61638;SDS011;47544;52.484;4.658;2023-07-16T00:55:16;11.38;;;5.03;;
61638;SDS011;47544;52.484;4.658;2023-07-16T00:55:28;10.68;;;5.05;;
61638;SDS011;47544;52.484;4.658;2023-07-16T00:55:39;9.30;;;4.28;;
61638;SDS011;47544;52.484;4.658;2023-07-16T00:55:51;9.15;;;3.70;;
61638;SDS011;47544;52.484;4.658;2023-07-16T00:56:03;8.75;;;3.15;;
61638;SDS011;47544;52.484;4.658;2023-07-16T00:56:15;10.15;;;3.38;;
61638;SDS011;47544;52.484;4.658;2023-07-16T00:56:27;11.38;;;3.60;;
61638;SDS011;47544;52.484;4.658;2023-07-16T00:56:38;11.13;;;3.50;;
61638;SDS011;47544;52.484;4.658;2023-07-16T00:56:49;11.13;;;3.50;;
61638;SDS011;47544;52.484;4.658;2023-07-16T00:57:00;12.25;;;3.75;;
61638;SDS011;47544;52.484;4.658;2023-07-16T00:57:12;12.77;;;4.50;;
61638;SDS011;47544;52.484;4.658;2023-07-16T00:57:23;10.23;;;4.93;;
61638;SDS011;47544;52.484;4.658;2023-07-16T00:57:37;10.10;;;5.07;;
61638;SDS011;47544;52.484;4.658;2023-07-16T00:57:48;13.82;;;4.95;;
61638;SDS011;47544;52.484;4.658;2023-07-16T00:58:03;13.73;;;4.70;;
61638;SDS011;47544;52.484;4.658;2023-07-16T00:58:18;11.63;;;4.72;;
61638;SDS011;47544;52.484;4.658;2023-07-16T00:58:29;14.25;;;5.30;;
61638;SDS011;47544;52.484;4.658;2023-07-16T00:58:41;11.68;;;5.05;;
61638;SDS011;47544;52.484;4.658;2023-07-16T00:58:56;9.25;;;4.25;;
61638;SDS011;47544;52.484;4.658;2023-07-16T00:59:07;12.88;;;4.53;;
61638;SDS011;47544;52.484;4.658;2023-07-16T00:59:18;15.73;;;5.53;;
61638;SDS011;47544;52.484;4.658;2023-07-16T00:59:29;16.75;;;5.43;;
61638;SDS011;47544;52.484;4.658;2023-07-16T00:59:42;13.70;;;5.10;;
61638;SDS011;47544;52.484;4.658;2023-07-16T00:59:53;11.98;;;5.10;;
61638;SDS011;47544;52.484;4.658;2023-07-16T01:00:05;13.23;;;5.05;;
61638;SDS011;47544;52.484;4.658;2023-07-16T01:00:17;14.75;;;4.95;;
61638;SDS011;47544;52.484;4.658;2023-07-16T01:00:28;14.27;;;4.82;;
61638;SDS011;47544;52.484;4.658;2023-07-16T01:00:40;11.48;;;4.40;;
61638;SDS011;47544;52.484;4.658;2023-07-16T01:01:01;9.43;;;4.53;;
61638;SDS011;47544;52.484;4.658;2023-07-16T01:01:12;8.77;;;4.75;;
61638;SDS011;47544;52.484;4.658;2023-07-16T01:01:25;9.10;;;4.88;;
61638;SDS011;47544;52.484;4.658;2023-07-16T01:01:36;9.43;;;4.95;;
61638;SDS011;47544;52.484;4.658;2023-07-16T01:01:48;9.48;;;4.80;;
61638;SDS011;47544;52.484;4.658;2023-07-16T01:01:59;10.75;;;4.45;;
61638;SDS011;47544;52.484;4.658;2023-07-16T01:02:10;10.45;;;4.00;;
61638;SDS011;47544;52.484;4.658;2023-07-16T01:02:21;8.43;;;3.70;;
61638;SDS011;47544;52.484;4.658;2023-07-16T01:02:34;8.82;;;4.15;;
61638;SDS011;47544;52.484;4.658;2023-07-16T01:02:45;9.18;;;3.85;;
61638;SDS011;47544;52.484;4.658;2023-07-16T01:02:58;9.88;;;3.72;;
61638;SDS011;47544;52.484;4.658;2023-07-16T01:03:14;10.75;;;4.30;;
61638;SDS011;47544;52.484;4.658;2023-07-16T01:03:26;12.63;;;4.55;;
61638;SDS011;47544;52.484;4.658;2023-07-16T01:03:38;10.98;;;4.00;;
61638;SDS011;47544;52.484;4.658;2023-07-16T01:03:49;9.27;;;3.90;;
61638;SDS011;47544;52.484;4.658;2023-07-16T01:04:01;8.60;;;3.95;;
61638;SDS011;47544;52.484;4.658;2023-07-16T01:04:13;9.32;;;4.28;;
61638;SDS011;47544;52.484;4.658;2023-07-16T01:04:24;9.77;;;4.20;;
61638;SDS011;47544;52.484;4.658;2023-07-16T01:04:35;9.88;;;3.92;;
61638;SDS011;47544;52.484;4.658;2023-07-16T01:04:46;11.52;;;4.30;;
61638;SDS011;47544;52.484;4.658;2023-07-16T01:04:57;11.25;;;4.50;;
61638;SDS011;47544;52.484;4.658;2023-07-16T01:05:09;11.55;;;4.82;;
61638;SDS011;47544;52.484;4.658;2023-07-16T01:05:21;10.57;;;4.68;;
61638;SDS011;47544;52.484;4.658;2023-07-16T01:05:36;10.25;;;3.90;;
61638;SDS011;47544;52.484;4.658;2023-07-16T01:05:51;11.18;;;4.10;;
61638;SDS011;47544;52.484;4.658;2023-07-16T01:06:09;10.32;;;4.70;;
61638;SDS011;47544;52.484;4.658;2023-07-16T01:06:22;10.50;;;3.97;;
61638;SDS011;47544;52.484;4.658;2023-07-16T01:06:35;10.80;;;3.80;;
61638;SDS011;47544;52.484;4.658;2023-07-16T01:06:48;9.40;;;4.25;;
61638;SDS011;47544;52.484;4.658;2023-07-16T01:07:01;9.85;;;4.78;;
61638;SDS011;47544;52.484;4.658;2023-07-16T01:07:15;11.93;;;4.38;;
61638;SDS011;47544;52.484;4.658;2023-07-16T01:07:30;12.38;;;4.30;;
61638;SDS011;47544;52.484;4.658;2023-07-16T01:07:42;13.20;;;4.20;;
61638;SDS011;47544;52.484;4.658;2023-07-16T01:07:57;13.57;;;4.30;;
61638;SDS011;47544;52.484;4.658;2023-07-16T01:08:11;11.98;;;4.18;;
61638;SDS011;47544;52.484;4.658;2023-07-16T01:08:26;10.85;;;4.25;;
61638;SDS011;47544;52.484;4.658;2023-07-16T01:08:41;9.93;;;4.28;;
61638;SDS011;47544;52.484;4.658;2023-07-16T01:08:56;11.38;;;4.05;;
61638;SDS011;47544;52.484;4.658;2023-07-16T01:09:10;9.43;;;3.63;;
61638;SDS011;47544;52.484;4.658;2023-07-16T01:09:24;8.13;;;3.08;;
61638;SDS011;47544;52.484;4.658;2023-07-16T01:09:36;9.82;;;3.85;;
61638;SDS011;47544;52.484;4.658;2023-07-16T01:09:50;11.63;;;4.65;;
61638;SDS011;47544;52.484;4.658;2023-07-16T01:10:02;11.27;;;4.70;;
61638;SDS011;47544;52.484;4.658;2023-07-16T01:10:16;12.38;;;4.97;;
61638;SDS011;47544;52.484;4.658;2023-07-16T01:10:27;13.32;;;4.53;;
61638;SDS011;47544;52.484;4.658;2023-07-16T01:10:41;12.05;;;3.78;;
61638;SDS011;47544;52.484;4.658;2023-07-16T01:10:55;9.10;;;3.75;;
61638;SDS011;47544;52.484;4.658;2023-07-16T01:11:07;10.55;;;4.15;;
61638;SDS011;47544;52.484;4.658;2023-07-16T01:11:19;11.00;;;5.10;;
61638;SDS011;47544;52.484;4.658;2023-07-16T01:11:32;9.43;;;5.10;;
61638;SDS011;47544;52.484;4.658;2023-07-16T01:11:46;8.55;;;4.63;;
61638;SDS011;47544;52.484;4.658;2023-07-16T01:11:58;10.30;;;4.35;;
61638;SDS011;47544;52.484;4.658;2023-07-16T01:12:11;11.82;;;4.32;;
61638;SDS011;47544;52.484;4.658;2023-07-16T01:12:23;11.48;;;4.15;;
61638;SDS011;47544;52.484;4.658;2023-07-16T01:12:39;9.82;;;4.13;;
61638;SDS011;47544;52.484;4.658;2023-07-16T01:12:50;10.38;;;4.30;;
61638;SDS011;47544;52.484;4.658;2023-07-16T01:13:03;10.65;;;4.00;;
61638;SDS011;47544;52.484;4.658;2023-07-16T01:13:16;10.82;;;4.03;;
61638;SDS011;47544;52.484;4.658;2023-07-16T01:13:27;9.45;;;3.90;;